createdAt,value
2022-08-11T00:01:19.359Z,57.95
2022-08-11T00:03:57.684Z,58.15
2022-08-11T00:06:34.694Z,58.23
2022-08-11T00:09:03.821Z,58.25
2022-08-11T00:11:58.565Z,58.41
2022-08-11T00:14:36.073Z,58.54
2022-08-11T00:17:10.491Z,58.63
2022-08-11T00:20:14.977Z,58.75
2022-08-11T00:22:40.133Z,58.72
2022-08-11T00:25:25.516Z,58.33
2022-08-11T00:27:52.104Z,58.99
2022-08-11T00:30:18.688Z,59.32
2022-08-11T00:32:54.397Z,59.39
2022-08-11T00:35:51.966Z,59.70
2022-08-11T00:38:14.148Z,59.23
2022-08-11T00:40:59.408Z,59.24
2022-08-11T00:43:42.896Z,59.26
2022-08-11T00:46:16.352Z,59.29
2022-08-11T00:48:59.600Z,59.64
2022-08-11T00:52:05.517Z,59.26
2022-08-11T00:54:44.971Z,59.51
2022-08-11T00:57:38.537Z,59.63
2022-08-11T01:00:13.467Z,59.46
2022-08-11T01:03:17.957Z,59.81
2022-08-11T01:06:13.259Z,59.74
2022-08-11T01:08:57.428Z,60.17
2022-08-11T01:11:55.141Z,60.30
2022-08-11T01:15:00.028Z,60.24
2022-08-11T01:18:13.896Z,60.19
2022-08-11T01:20:49.725Z,60.86
2022-08-11T01:23:47.798Z,60.81
2022-08-11T01:26:49.575Z,60.58
2022-08-11T01:29:36.735Z,60.88
2022-08-11T01:32:23.330Z,60.89
2022-08-11T01:35:29.721Z,60.80
2022-08-11T01:38:17.865Z,61.38
2022-08-11T01:41:23.897Z,61.58
2022-08-11T01:44:27.596Z,61.74
2022-08-11T01:47:35.233Z,62.03
2022-08-11T01:50:12.572Z,62.04
2022-08-11T01:53:04.799Z,61.98
2022-08-11T01:55:55.242Z,61.79
2022-08-11T01:58:50.118Z,62.36
2022-08-11T02:01:40.851Z,62.10
2022-08-11T02:04:29.944Z,62.42
2022-08-11T02:07:11.420Z,62.54
2022-08-11T02:09:49.907Z,62.62
2022-08-11T02:12:35.871Z,61.97
2022-08-11T02:15:27.551Z,62.15
2022-08-11T02:18:20.163Z,62.74
2022-08-11T02:21:18.856Z,62.60
2022-08-11T02:24:05.990Z,62.89
2022-08-11T02:26:42.021Z,63.06
2022-08-11T02:29:42.145Z,62.93
2022-08-11T02:32:41.750Z,63.28
2022-08-11T02:35:16.406Z,63.15
2022-08-11T02:38:01.164Z,63.73
2022-08-11T02:40:46.100Z,63.54
2022-08-11T02:43:27.745Z,63.66
2022-08-11T02:46:18.054Z,63.60
2022-08-11T02:49:17.731Z,63.61
2022-08-11T02:52:14.196Z,63.58
2022-08-11T02:54:48.137Z,63.73
2022-08-11T02:57:59.327Z,63.87
2022-08-11T03:00:29.610Z,64.08
2022-08-11T03:03:37.368Z,64.07
2022-08-11T03:06:24.342Z,63.86
2022-08-11T03:09:03.060Z,64.04
2022-08-11T03:12:15.192Z,64.17
2022-08-11T03:15:12.808Z,64.41
2022-08-11T03:18:03.159Z,63.84
2022-08-11T03:20:43.647Z,64.27
2022-08-11T03:23:19.898Z,63.73
2022-08-11T03:25:56.051Z,64.44
2022-08-11T03:28:51.587Z,64.62
2022-08-11T03:31:29.694Z,64.56
2022-08-11T03:34:08.385Z,64.66
2022-08-11T03:37:14.911Z,64.84
2022-08-11T03:40:09.048Z,64.50
2022-08-11T03:42:44.024Z,64.33
2022-08-11T03:45:31.719Z,64.59
2022-08-11T03:48:23.071Z,64.95
2022-08-11T03:51:12.693Z,65.30
2022-08-11T03:53:55.204Z,65.25
2022-08-11T03:56:45.616Z,65.47
2022-08-11T03:59:51.178Z,65.86
2022-08-11T04:02:41.614Z,65.96
2022-08-11T04:05:16.967Z,65.57
2022-08-11T04:07:49.168Z,65.74
2022-08-11T04:10:33.917Z,65.93
2022-08-11T04:13:26.826Z,66.02
2022-08-11T04:16:25.606Z,66.12
2022-08-11T04:19:14.264Z,65.34
2022-08-11T04:22:20.780Z,66.09
2022-08-11T04:25:12.077Z,66.15
2022-08-11T04:28:06.462Z,66.34
2022-08-11T04:30:58.847Z,66.62
2022-08-11T04:33:56.078Z,66.75
2022-08-11T04:37:17.103Z,66.41
2022-08-11T04:40:25.521Z,66.68
2022-08-11T04:43:19.471Z,67.14
2022-08-11T04:46:00.955Z,67.22
2022-08-11T04:49:08.157Z,67.04
2022-08-11T04:52:25.633Z,67.35
2022-08-11T04:55:44.976Z,67.15
2022-08-11T04:58:48.601Z,67.17
2022-08-11T05:01:37.683Z,66.96
2022-08-11T05:04:39.635Z,66.92
2022-08-11T05:07:40.141Z,67.37
2022-08-11T05:10:34.488Z,67.78
2022-08-11T05:13:30.774Z,67.46
2022-08-11T05:16:27.527Z,67.96
2022-08-11T05:19:16.374Z,67.29
2022-08-11T05:22:12.892Z,67.97
2022-08-11T05:26:43.388Z,67.88
2022-08-11T05:28:40.737Z,67.21
2022-08-11T05:31:32.664Z,67.28
2022-08-11T05:34:22.005Z,63.66
2022-08-11T05:36:56.421Z,60.07
2022-08-11T05:39:52.911Z,56.51
2022-08-11T05:42:41.767Z,59.73
2022-08-11T05:45:57.303Z,61.51
2022-08-11T05:48:40.916Z,62.11
2022-08-11T05:51:30.292Z,61.15
2022-08-11T05:54:28.806Z,57.09
2022-08-11T05:57:02.297Z,50.67
2022-08-11T05:59:31.356Z,44.93
2022-08-11T06:02:07.343Z,43.28
2022-08-11T06:04:34.978Z,41.57
2022-08-11T06:07:09.462Z,42.33
2022-08-11T06:09:37.243Z,45.74
2022-08-11T06:12:22.656Z,48.80
2022-08-11T06:14:57.398Z,51.29
2022-08-11T06:17:26.393Z,49.51
2022-08-11T06:20:07.592Z,42.69
2022-08-11T06:22:34.822Z,40.74
2022-08-11T06:25:02.682Z,39.39
2022-08-11T06:27:35.521Z,37.95
2022-08-11T06:30:13.406Z,36.83
2022-08-11T06:32:44.428Z,34.09
2022-08-11T06:35:46.778Z,31.49
2022-08-11T06:38:26.318Z,28.71
2022-08-11T06:41:26.847Z,27.56
2022-08-11T06:44:06.663Z,26.40
2022-08-11T06:46:39.455Z,25.17
2022-08-11T06:49:31.323Z,25.26
2022-08-11T06:52:02.949Z,26.13
2022-08-11T06:54:36.268Z,29.17
2022-08-11T06:57:31.947Z,34.12
2022-08-11T07:00:28.301Z,36.98
2022-08-11T07:03:03.316Z,40.28
2022-08-11T07:05:49.852Z,41.96
2022-08-11T07:08:53.914Z,44.66
2022-08-11T07:12:05.032Z,44.63
2022-08-11T07:14:51.740Z,46.98
2022-08-11T07:17:25.687Z,47.31
2022-08-11T07:20:14.828Z,47.77
2022-08-11T07:23:02.408Z,49.13
2022-08-11T07:25:50.530Z,49.26
2022-08-11T07:28:47.135Z,49.34
2022-08-11T07:31:29.210Z,50.04
2022-08-11T07:34:11.142Z,49.99
2022-08-11T07:36:45.892Z,49.97
2022-08-11T07:39:39.109Z,42.24
2022-08-11T07:42:09.872Z,37.72
2022-08-11T07:44:59.920Z,35.33
2022-08-11T07:47:46.608Z,32.55
2022-08-11T07:50:32.363Z,31.68
2022-08-11T07:53:00.721Z,30.95
2022-08-11T07:55:51.180Z,30.17
2022-08-11T07:58:38.776Z,30.10
2022-08-11T08:01:37.013Z,27.27
2022-08-11T08:04:24.460Z,27.59
2022-08-11T08:07:10.338Z,27.82
2022-08-11T08:09:56.471Z,28.27
2022-08-11T08:12:44.327Z,27.35
2022-08-11T08:15:31.678Z,26.51
2022-08-11T08:18:09.745Z,27.00
2022-08-11T08:20:50.095Z,28.34
2022-08-11T08:23:18.727Z,26.54
2022-08-11T08:25:46.325Z,26.72
2022-08-11T08:28:16.396Z,26.71
2022-08-11T08:30:51.274Z,26.17
2022-08-11T08:33:26.303Z,26.74
2022-08-11T08:36:11.810Z,26.04
2022-08-11T08:38:42.715Z,26.40
2022-08-11T08:41:13.076Z,25.46
2022-08-11T08:43:48.763Z,25.77
2022-08-11T08:46:19.148Z,26.73
2022-08-11T08:48:48.000Z,25.31
2022-08-11T08:51:54.805Z,24.88
2022-08-11T08:54:25.542Z,26.16
2022-08-11T08:56:56.143Z,26.25
2022-08-11T08:59:26.591Z,25.76
2022-08-11T09:02:13.392Z,25.04
2022-08-11T09:04:42.593Z,26.11
2022-08-11T09:07:15.428Z,24.66
2022-08-11T09:09:50.807Z,25.37
2022-08-11T09:12:38.122Z,24.80
2022-08-11T09:15:09.270Z,26.32
2022-08-11T09:17:40.892Z,23.97
2022-08-11T09:20:13.840Z,23.69
2022-08-11T09:26:12.395Z,26.32
2022-08-11T09:28:39.524Z,22.62
2022-08-11T09:31:07.039Z,22.60
2022-08-11T09:33:34.227Z,23.47
2022-08-11T09:36:24.378Z,21.93
2022-08-11T09:39:11.674Z,21.60
2022-08-11T09:42:00.758Z,24.34
2022-08-11T09:44:46.690Z,21.74
2022-08-11T09:47:30.190Z,23.07
2022-08-11T09:50:01.563Z,21.91
2022-08-11T09:52:36.483Z,21.83
2022-08-11T09:55:10.790Z,23.91
2022-08-11T09:57:59.207Z,20.95
2022-08-11T10:00:37.797Z,21.32
2022-08-11T10:03:12.262Z,20.90
2022-08-11T10:06:05.869Z,20.61
2022-08-11T10:08:38.066Z,21.35
2022-08-11T10:11:08.780Z,20.19
2022-08-11T10:14:33.664Z,20.17
2022-08-11T10:16:49.498Z,19.93
2022-08-11T10:19:19.320Z,18.89
2022-08-11T10:22:09.469Z,20.49
2022-08-11T10:24:55.790Z,20.59
2022-08-11T10:27:27.228Z,18.69
2022-08-11T10:30:25.836Z,20.46
2022-08-11T10:33:18.972Z,18.53
2022-08-11T10:36:00.174Z,18.03
2022-08-11T10:38:27.757Z,18.33
2022-08-11T10:41:14.015Z,19.69
2022-08-11T10:44:01.497Z,19.13
2022-08-11T10:46:46.877Z,19.43
2022-08-11T10:49:13.658Z,19.13
2022-08-11T10:51:59.064Z,18.51
2022-08-11T10:54:44.884Z,18.72
2022-08-11T10:57:30.785Z,19.28
2022-08-11T10:59:58.149Z,19.73
2022-08-11T11:02:27.295Z,18.44
2022-08-11T11:05:09.476Z,19.73
2022-08-11T11:07:56.396Z,18.66
2022-08-11T11:10:22.902Z,19.46
2022-08-11T11:13:15.661Z,19.22
2022-08-11T11:16:04.779Z,19.37
2022-08-11T11:18:36.009Z,19.41
2022-08-11T11:21:04.357Z,19.29
2022-08-11T11:24:01.776Z,19.45
2022-08-11T11:26:43.545Z,20.45
2022-08-11T11:29:27.553Z,19.26
2022-08-11T11:32:22.795Z,19.91
2022-08-11T11:35:04.271Z,19.02
2022-08-11T11:37:35.661Z,17.92
2022-08-11T11:40:10.657Z,18.73
2022-08-11T11:42:42.070Z,18.16
2022-08-11T11:45:10.093Z,19.17
2022-08-11T11:47:54.185Z,18.81
2022-08-11T11:50:32.953Z,19.41
2022-08-11T11:53:01.688Z,19.10
2022-08-11T11:55:29.608Z,20.10
2022-08-11T11:58:18.750Z,20.08
2022-08-11T12:01:05.332Z,19.52
2022-08-11T12:03:33.716Z,21.64
2022-08-11T12:06:01.004Z,19.46
2022-08-11T12:08:29.086Z,20.10
2022-08-11T12:11:17.982Z,20.33
2022-08-11T12:13:50.424Z,20.16
2022-08-11T12:16:32.826Z,20.88
2022-08-11T12:19:05.817Z,19.53
2022-08-11T12:21:34.495Z,19.37
2022-08-11T12:24:21.779Z,20.35
2022-08-11T12:26:54.395Z,19.52
2022-08-11T12:29:39.976Z,19.50
2022-08-11T12:32:12.911Z,20.03
2022-08-11T12:34:39.600Z,19.37
2022-08-11T12:37:13.659Z,19.14
2022-08-11T12:40:16.003Z,19.22
2022-08-11T12:45:41.614Z,19.25
2022-08-11T12:48:58.776Z,19.74
2022-08-11T12:52:13.650Z,21.90
2022-08-11T12:54:58.701Z,20.41
2022-08-11T12:58:00.418Z,19.15
2022-08-11T13:00:46.782Z,20.45
2022-08-11T13:03:32.869Z,20.37
2022-08-11T13:06:04.600Z,19.78
2022-08-11T13:08:35.498Z,19.31
2022-08-11T13:11:22.312Z,19.54
2022-08-11T13:13:52.919Z,20.42
2022-08-11T13:16:24.400Z,19.45
2022-08-11T13:18:53.434Z,20.18
2022-08-11T13:21:21.788Z,19.42
2022-08-11T13:23:59.890Z,18.86
2022-08-11T13:26:47.466Z,19.21
2022-08-11T13:29:21.875Z,19.09
2022-08-11T13:31:49.197Z,20.05
2022-08-11T13:34:21.278Z,18.17
2022-08-11T13:36:53.326Z,19.09
2022-08-11T13:39:25.136Z,18.63
2022-08-11T13:41:56.403Z,19.97
2022-08-11T13:44:27.265Z,19.11
2022-08-11T13:46:59.319Z,19.53
2022-08-11T13:49:26.355Z,20.14
2022-08-11T13:51:55.216Z,19.17
2022-08-11T13:54:24.290Z,18.34
2022-08-11T13:56:56.204Z,19.13
2022-08-11T13:59:29.968Z,21.86
2022-08-11T14:02:21.995Z,19.74
2022-08-11T14:04:58.123Z,19.16
2022-08-11T14:07:35.216Z,21.34
2022-08-11T14:10:04.404Z,21.45
2022-08-11T14:12:53.376Z,19.41
2022-08-11T14:15:31.870Z,18.89
2022-08-11T14:18:05.091Z,19.14
2022-08-11T14:20:54.079Z,18.04
2022-08-11T14:23:42.323Z,18.84
2022-08-11T14:26:28.885Z,19.27
2022-08-11T14:29:00.772Z,20.17
2022-08-11T14:31:29.595Z,18.20
2022-08-11T14:34:02.344Z,17.91
2022-08-11T14:36:32.864Z,19.44
2022-08-11T14:39:01.998Z,19.43
2022-08-11T14:42:11.637Z,21.05
2022-08-11T14:44:54.888Z,19.02
2022-08-11T14:47:25.407Z,20.35
2022-08-11T14:50:04.957Z,19.46
2022-08-11T14:52:41.232Z,18.00
2022-08-11T14:55:27.212Z,18.06
2022-08-11T14:57:57.025Z,18.67
2022-08-11T15:00:24.963Z,20.09
2022-08-11T15:03:11.049Z,19.20
2022-08-11T15:05:56.092Z,19.41
2022-08-11T15:08:47.172Z,20.52
2022-08-11T15:11:34.656Z,19.39
2022-08-11T15:14:02.996Z,19.62
2022-08-11T15:16:48.600Z,22.30
2022-08-11T15:19:16.927Z,21.21
2022-08-11T15:22:02.021Z,21.12
2022-08-11T15:24:30.933Z,18.57
2022-08-11T15:27:17.993Z,19.54
2022-08-11T15:30:04.984Z,18.36
2022-08-11T15:32:50.794Z,18.85
2022-08-11T15:35:39.105Z,18.33
2022-08-11T15:38:11.576Z,21.11
2022-08-11T15:40:58.718Z,20.39
2022-08-11T15:43:47.888Z,20.79
2022-08-11T15:46:18.385Z,21.15
2022-08-11T15:48:50.401Z,20.34
2022-08-11T15:51:33.236Z,19.27
2022-08-11T15:54:08.553Z,19.31
2022-08-11T15:56:39.098Z,19.37
2022-08-11T15:59:42.092Z,19.62
2022-08-11T16:02:33.766Z,19.60
2022-08-11T16:05:04.327Z,19.23
2022-08-11T16:07:36.889Z,19.82
2022-08-11T16:10:18.696Z,20.09
2022-08-11T16:13:07.812Z,19.93
2022-08-11T16:15:59.011Z,20.03
2022-08-11T16:18:40.542Z,19.64
2022-08-11T16:21:34.465Z,20.55
2022-08-11T16:24:06.310Z,21.06
2022-08-11T16:27:07.748Z,21.30
2022-08-11T16:29:25.346Z,20.81
2022-08-11T16:32:13.347Z,21.35
2022-08-11T16:34:59.087Z,21.51
2022-08-11T16:37:45.456Z,21.19
2022-08-11T16:40:13.223Z,22.16
2022-08-11T16:43:06.318Z,21.75
2022-08-11T16:45:56.454Z,21.32
2022-08-11T16:48:33.435Z,21.43
2022-08-11T16:51:04.696Z,21.68
2022-08-11T16:54:00.150Z,21.86
2022-08-11T16:56:23.224Z,23.14
2022-08-11T17:01:48.945Z,22.01
2022-08-11T17:04:48.834Z,21.96
2022-08-11T17:07:42.156Z,21.56
2022-08-11T17:10:52.755Z,22.54
2022-08-11T17:13:40.112Z,22.71
2022-08-11T17:16:12.825Z,22.40
2022-08-11T17:18:48.908Z,22.85
2022-08-11T17:21:20.305Z,22.48
2022-08-11T17:24:05.056Z,22.75
2022-08-11T17:26:57.050Z,22.29
2022-08-11T17:29:54.837Z,23.55
2022-08-11T17:32:57.228Z,22.87
2022-08-11T17:35:38.491Z,23.30
2022-08-11T17:38:12.514Z,23.20
2022-08-11T17:41:03.156Z,23.08
2022-08-11T17:43:49.934Z,24.32
2022-08-11T17:46:35.746Z,25.15
2022-08-11T17:49:03.652Z,24.71
2022-08-11T17:51:49.543Z,23.82
2022-08-11T17:54:34.829Z,23.79
2022-08-11T17:57:21.981Z,24.29
2022-08-11T17:59:53.876Z,24.96
2022-08-11T18:02:43.583Z,24.35
2022-08-11T18:05:13.603Z,25.20
2022-08-11T18:08:01.848Z,25.32
2022-08-11T18:10:49.471Z,26.54
2022-08-11T18:13:37.615Z,25.22
2022-08-11T18:16:23.225Z,25.41
2022-08-11T18:19:08.357Z,26.27
2022-08-11T18:22:10.973Z,26.23
2022-08-11T18:25:05.214Z,26.11
2022-08-11T18:27:53.222Z,27.84
2022-08-11T18:30:38.476Z,27.12
2022-08-11T18:33:50.639Z,28.71
2022-08-11T18:36:37.641Z,29.14
2022-08-11T18:39:24.987Z,28.90
2022-08-11T18:42:14.912Z,30.45
2022-08-11T18:45:07.796Z,30.84
2022-08-11T18:47:57.065Z,30.49
2022-08-11T18:50:42.999Z,30.43
2022-08-11T18:53:41.164Z,31.03
2022-08-11T18:56:26.341Z,29.87
2022-08-11T18:59:12.320Z,31.60
2022-08-11T19:01:57.988Z,32.53
2022-08-11T19:04:44.289Z,32.53
2022-08-11T19:07:31.081Z,33.51
2022-08-11T19:10:17.781Z,32.95
2022-08-11T19:13:05.031Z,33.75
2022-08-11T19:15:51.245Z,33.98
2022-08-11T19:18:39.591Z,34.97
2022-08-11T19:21:26.344Z,34.77
2022-08-11T19:24:15.005Z,35.30
2022-08-11T19:27:01.854Z,35.58
2022-08-11T19:30:09.095Z,36.64
2022-08-11T19:32:53.965Z,37.13
2022-08-11T19:35:39.332Z,37.40
2022-08-11T19:38:24.606Z,38.01
2022-08-11T19:41:11.584Z,38.22
2022-08-11T19:43:57.948Z,38.67
2022-08-11T19:46:44.270Z,38.72
2022-08-11T19:49:30.292Z,38.58
2022-08-11T19:52:17.391Z,38.99
2022-08-11T19:55:03.243Z,39.15
2022-08-11T19:57:50.214Z,39.97
2022-08-11T20:00:38.828Z,39.80
2022-08-11T20:03:27.627Z,40.34
2022-08-11T20:06:15.592Z,39.93
2022-08-11T20:09:04.009Z,40.56
2022-08-11T20:11:55.329Z,40.04
2022-08-11T20:14:43.120Z,40.91
2022-08-11T20:17:32.312Z,42.09
2022-08-11T20:20:19.772Z,41.99
2022-08-11T20:23:08.168Z,41.82
2022-08-11T20:26:03.392Z,41.64
2022-08-11T20:28:55.965Z,41.88
2022-08-11T20:31:42.612Z,41.65
2022-08-11T20:34:29.649Z,42.48
2022-08-11T20:37:18.423Z,41.42
2022-08-11T20:40:04.873Z,41.83
2022-08-11T20:42:52.181Z,42.03
2022-08-11T20:45:38.439Z,42.23
2022-08-11T20:48:41.998Z,42.11
2022-08-11T20:51:27.803Z,42.61
2022-08-11T20:54:20.237Z,43.09
2022-08-11T20:57:57.796Z,42.77
2022-08-11T21:00:39.468Z,42.81
2022-08-11T21:03:36.044Z,43.26
2022-08-11T21:06:33.017Z,44.29
2022-08-11T21:09:25.066Z,44.83
2022-08-11T21:12:30.997Z,44.56
2022-08-11T21:15:38.945Z,44.76
2022-08-11T21:18:28.212Z,45.68
2022-08-11T21:21:18.317Z,45.21
2022-08-11T21:24:06.289Z,46.11
2022-08-11T21:26:54.241Z,46.27
2022-08-11T21:29:40.330Z,46.21
2022-08-11T21:32:25.712Z,46.21
2022-08-11T21:35:12.001Z,46.97
2022-08-11T21:37:57.994Z,46.61
2022-08-11T21:40:46.139Z,47.03
2022-08-11T21:43:34.095Z,46.65
2022-08-11T21:46:21.371Z,46.88
2022-08-11T21:49:07.697Z,47.71
2022-08-11T21:51:52.700Z,47.59
2022-08-11T21:54:38.860Z,47.82
2022-08-11T21:57:25.356Z,48.01
2022-08-11T22:00:16.818Z,48.53
2022-08-11T22:03:04.177Z,48.35
2022-08-11T22:05:52.478Z,49.25
2022-08-11T22:08:38.221Z,49.05
2022-08-11T22:11:32.004Z,48.85
2022-08-11T22:14:18.128Z,49.39
2022-08-11T22:17:02.989Z,49.27
2022-08-11T22:19:49.170Z,49.57
2022-08-11T22:22:34.493Z,50.10
2022-08-11T22:25:38.614Z,49.49
2022-08-11T22:28:23.953Z,50.10
2022-08-11T22:31:09.447Z,50.19
2022-08-11T22:34:02.963Z,50.00
2022-08-11T22:36:49.448Z,49.98
2022-08-11T22:39:35.711Z,50.87
2022-08-11T22:42:32.253Z,50.35
2022-08-11T22:45:19.588Z,50.71
2022-08-11T22:48:07.722Z,51.79
2022-08-11T22:50:55.292Z,51.75
2022-08-11T22:53:57.150Z,51.83
2022-08-11T22:56:48.468Z,51.50
2022-08-11T22:59:34.636Z,51.67
2022-08-11T23:02:20.949Z,51.56
2022-08-11T23:05:07.987Z,51.95
2022-08-11T23:07:54.766Z,52.29
2022-08-11T23:10:41.742Z,52.22
2022-08-11T23:13:28.104Z,52.19
2022-08-11T23:16:14.427Z,52.54
2022-08-11T23:19:00.865Z,52.71
2022-08-11T23:21:46.771Z,52.82
2022-08-11T23:24:32.264Z,52.83
2022-08-11T23:27:19.122Z,53.07
2022-08-11T23:30:06.689Z,53.34
2022-08-11T23:32:51.925Z,53.57
2022-08-11T23:35:54.011Z,53.75
2022-08-11T23:38:43.271Z,54.08
2022-08-11T23:41:28.759Z,54.34
2022-08-11T23:44:14.294Z,54.20
2022-08-11T23:47:00.974Z,54.26
2022-08-11T23:49:47.108Z,54.88
2022-08-11T23:52:34.071Z,54.53
2022-08-11T23:55:19.146Z,54.95
2022-08-11T23:58:04.558Z,54.96
